• Join FlightAware (Why Join?)
  • Login
  • US Flag 
 
06:03PM EST


 

Airport Tracker/Info


-or-


 

Live Flight TrackerFlight Track Log ✈ FSR411 ✈ 11-Feb-2014 ✈ KCMI - KDET

Flight Track Log - Related Links

Times and Time Zones

All times are in EST time to prevent confusion due to time zone crossing. See the FSR411 flight status page for this flight to view local times or setup timezone preferences in your user account.

Time Position Orientation Groundspeed Altitude Reporting Facility
EST Latitude Longitude Course Direction KTS MPH feet Rate Location/Type
06:54AM 40.0781 -88.2794 65° Northeast 212 244 3,700  Level Chicago Center
06:55AM 40.1000 -88.2150 66° East 217 250 7,300 2,820 Climbing Chicago Center
06:56AM 40.1267 -88.1311 67° East 274 315 9,500 2,640 Climbing Chicago Center
06:57AM 40.2669 -87.5160 65° Northeast  Level FlightAware Approximate
06:57AM 40.1586 -88.0242 69° East 313 360 12,700  Level Chicago Center
06:58AM 40.3103 -87.3924 65° Northeast  Level FlightAware Approximate
06:58AM 40.2033 -87.8761 68° East 373 429 16,700  Level Chicago Center
06:59AM 40.3536 -87.2687 65° Northeast  Level FlightAware Approximate
06:59AM 40.2472 -87.7317 68° East 422 486 19,600  Level Chicago Center
07:00AM 40.2942 -87.5772 68° East 452 520 23,000 3,120 Climbing Chicago Center
07:01AM 40.3450 -87.4108 68° East 471 542 26,000 1,980 Climbing Chicago Center
07:02AM 40.3950 -87.2394 69° East 498 573 27,000 480 Climbing Chicago Center
07:03AM 40.4483 -87.0597 69° East 524 603 27,000  Level Chicago Center
07:04AM 40.5008 -86.8808 69° East 524 603 27,000  Level Chicago Center
07:05AM 40.5522 -86.7039 69° East 519 597 27,000  Level Chicago Center
07:06AM 40.6033 -86.5281 69° East 516 594 27,000  Level Chicago Center
07:07AM 40.6547 -86.3536 69° East 512 589 27,000  Level Chicago Center
07:08AM 40.7017 -86.1878 69° East 510 587 27,000  Level Chicago Center
07:09AM 40.7517 -86.0125 69° East 512 589 27,000  Level Chicago Center
07:10AM 40.8003 -85.8397 70° East 507 583 27,000  Level Chicago Center
07:11AM 40.8486 -85.6650 70° East 510 587 27,000 -1,080 Level Chicago Center
07:12AM 40.8950 -85.4969 70° East 493 567 24,900 -1,860 Descending Chicago Center
07:13AM 40.9383 -85.3394 70° East 464 534 23,300 -960 Descending Chicago Center
07:14AM 40.9939 -85.1364 70° East 487 560 23,000 -180 Descending Chicago Center
07:15AM 41.0467 -84.9733 67° East 488 562 23,000 -360 Level Chicago Center
07:16AM 41.0967 -84.8111 68° East 482 555 22,300 -1,020 Descending Chicago Center
07:17AM 41.1461 -84.6525 67° East 473 544 21,000 -1,380 Descending Chicago Center
07:18AM 41.1933 -84.4975 68° East 461 531 19,600 -1,440 Descending Chicago Center
07:19AM 41.2397 -84.3450 68° East 451 519 18,200 -1,200 Descending Chicago Center
07:20AM 41.2847 -84.1981 68° East 437 503 17,300 -1,140 Descending Chicago Center
07:21AM 41.3281 -84.0531 68° East 425 489 15,900 -1,380 Descending Chicago Center
07:22AM 41.3700 -83.9136 68° East 413 475 14,500 -1,440 Descending Chicago Center
07:23AM 41.4114 -83.7775 68° East 403 464 13,100 -1,320 Descending Chicago Center
07:24AM 41.4514 -83.6464 68° East 395 455 11,900 -1,200 Descending Chicago Center
07:25AM 41.5139 -83.4819 63° Northeast 359 413 10,400 -1,200 Descending Cleveland Center
07:26AM 41.5264 -83.4536 59° Northeast 359 413 10,200 -420 Descending Cleveland Center
07:27AM 41.5606 -83.3647 63° Northeast 359 413 10,000 -120 Descending Cleveland Center
07:27AM 41.5717 -83.3342 64° Northeast 354 407 10,100  Climbing Cleveland Center
07:28AM 41.6103 -83.2400 61° Northeast 352 405 10,000  Descending Cleveland Center
07:28AM 41.6133 -83.2283 71° East 350 403 10,100 -300 Climbing Cleveland Center
07:29AM 41.6478 -83.1433 62° Northeast 331 381 9,700 -600 Descending Cleveland Center
07:29AM 41.6547 -83.1278 59° Northeast 292 336 9,500 -1,200 Descending Cleveland Center
07:30AM 41.6850 -83.0500 62° Northeast 290 334 8,500 -1,200 Descending Cleveland Center
07:30AM 41.6914 -83.0294 67° East 290 334 8,300 -540 Descending Cleveland Center
07:31AM 41.7303 -82.9394 60° Northeast 287 330 8,000 -300 Descending Cleveland Center
07:31AM 41.7297 -82.9394 180° South 283 326 8,000  Level Cleveland Center
07:32AM 41.8000 -82.9047 20° North 272 313 8,000 60 Level Cleveland Center
07:32AM 41.8036 -82.9019 30° Northeast 268 308 8,100 -540 Climbing Cleveland Center
07:33AM 41.8708 -82.8739 17° North 269 310 7,500 -720 Descending Cleveland Center
07:33AM 41.8769 -82.8725 10° North 271 312 7,400 -1,080 Descending Cleveland Center
07:34AM 41.9483 -82.8425 17° North 267 307 6,400 -960 Descending Cleveland Center
07:35AM 42.0122 -82.8150 18° North 268 308 5,500 -1,080 Descending Cleveland Center
07:36AM 42.0994 -82.8119 North 250 288 4,100 -1,140 Descending Cleveland Center
07:37AM 42.1633 -82.8233 352° North 246 283 3,200 -900 Descending Cleveland Center
07:37AM 42.1511 -82.8200 169° South 255 293 3,300 -240 Climbing Cleveland Center
07:38AM 42.2233 -82.8342 352° North 217 250 3,000 -300 Descending Cleveland Center
07:38AM 42.2261 -82.8342 360° North 236 272 3,000  Level Cleveland Center
07:39AM 42.2714 -82.8700 330° Northwest 198 228 3,000  Level Cleveland Center
07:40AM 42.3081 -82.9072 323° Northwest 165 190 3,100  Climbing Cleveland Center
07:40AM 42.3100 -82.9086 332° Northwest 179 206 3,000 -600 Descending Cleveland Center
07:41AM 42.3433 -82.9403 325° Northwest 149 171 2,500 -600 Descending Cleveland Center
07:41AM 42.3431 -82.9425 260° West 159 183 2,400 -900 Descending Cleveland Center
07:42AM 42.3706 -82.9694 324° Northwest 134 154 1,700 -780 Descending Cleveland Center
07:42AM 42.3742 -82.9728 326° Northwest 149 171 1,600 -660 Descending Cleveland Center
07:43AM 42.3994 -82.9994 322° Northwest 133 153 900 -720 Descending Cleveland Center